Papatoetoe, New Zealand
Current Conditions -  °F | °C
As of 5:30 PM on Friday 31 Oct 2014 (Local Time) from NZAA Reporting Station
Broken Clouds Broken Clouds  
Wind Chill: 64°   Ceiling: 2600
Heat Index: 64°   Visibility: 6mi
Dew Point: 55°   Wind: 25mph
Humidity: 73%   Direction: 260°W
Pressure: 29.94"   Gusts: NA
Location:  36.97°S, 174.85°E
Report Text: NZAA 310430Z AUTO 26022KT 9999 BKN026/// 18/13 Q1014 NOSIG
Loading
Personal Weather Stations






























Interactive Weather Map
Tropical Storm Tracking
New forecast layout! Learn more

10-Day Weather Forecast

Advertisements
Track Severe Weather on mobile